This is the latest recevied weather packets stored in our database for station/object KO4RJX-11. If no packets are shown the sender has not sent any weather packets the latest 10 day(s).
| Time | Temp. | Humidity | Pressure | Rain* | Wind** | Luminosity | Snow |
|---|---|---|---|---|---|---|---|
| 1777499192 | 23.33° C | 62% | 1002.8 hPa | 0 mm | - | - | - |
| 1777498791 | 23.89° C | 62% | 1002.8 hPa | 0 mm | - | - | - |
| 1777498392 | 23.89° C | 62% | 1002.8 hPa | 0 mm | - | - | - |
| 1777498123 | 23.33° C | 64% | 1003.2 hPa | 0 mm | - | - | - |
| 1777493591 | 22.78° C | 66% | 1004.2 hPa | 0 mm | - | - | - |
| 1777492791 | 22.22° C | 68% | 1004.5 hPa | 0 mm | - | - | - |
| 1777492391 | 22.22° C | 67% | 1004.5 hPa | 0 mm | - | - | - |
| 1777492123 | 22.22° C | 67% | 1004.5 hPa | 0 mm | - | - | - |
| 1777490392 | 21.67° C | 69% | 1004.9 hPa | 0 mm | - | - | - |
| 1777489991 | 22.22° C | 67% | 1005.2 hPa | 0 mm | - | - | - |
| 1777487591 | 20.56° C | 72% | 1005.6 hPa | 0 mm | - | - | - |
| 1777485991 | 20° C | 74% | 1006.2 hPa | 0 mm | - | - | - |
| 1777483191 | 20° C | 72% | 1006.6 hPa | 0 mm | - | - | - |
| 1777480791 | 19.44° C | 75% | 1007.3 hPa | 0 mm | - | - | - |
| 1777479991 | 18.89° C | 76% | 1007.3 hPa | 0 mm | - | - | - |
| 1777478792 | 18.89° C | 76% | 1007.9 hPa | 0 mm | - | - | - |
| 1777477321 | 18.89° C | 75% | 1008.3 hPa | 0 mm | - | - | - |
| 1777476391 | 18.89° C | 75% | 1008.6 hPa | 0 mm | - | - | - |
| 1777474791 | 18.89° C | 73% | 1008.6 hPa | 0 mm | - | - | - |
| 1777472391 | 18.89° C | 74% | 1009 hPa | 0 mm | - | - | - |
| 1777467991 | 17.78° C | 76% | 1010 hPa | 0 mm | - | - | - |
| 1777467321 | 17.78° C | 75% | 1009.7 hPa | 0 mm | - | - | - |
| 1777466792 | 17.78° C | 76% | 1009.7 hPa | 0 mm | - | - | - |
| 1777466123 | 17.22° C | 77% | 1009.7 hPa | 0 mm | - | - | - |
| 1777465191 | 16.67° C | 79% | 1010 hPa | 0 mm | - | - | - |
* Rain since midnight (hover to see other rain measurements)
** Current wind speed in m/s (hover to see current wind gust speed)